Houtzdale, PA

11:31 PM EST on December 22, 2014 (GMT -0500)
Clearfield-Lawrence | Change Station
CLOSE
Current Station
Airport
Location: Clearfield,
Elevation: 1516 ft
Nearby Weather Stations
Active Advisory: Freezing Rain Advisory Active Notice: Public Information Statement

Elev 1516 ft 41.05 °N, 78.41 °W | Updated 26 minutes ago

Overcast
Overcast
30 °F
Feels Like 25 °F
N
5
Wind Variable Wind from NE

Today
High -- | Low -- °F
--% Chance of Precip.
Yesterday
High -- | Low -- °F
Precip. -- in
7:34 AM 4:49 PM
New Moon, 2% visible
Pressure 30.04 in
Visibility 5.0 miles
Clouds Overcast 900 ft
Windchill 25 °F
Dew Point 29 °F
Humidity 96%
Rainfall 0.02 in
Snow Depth Not available.
UV 0 out of 12
Pollen .10 out of 12
Air Quality Not available.
Flu Activity Not available.
METAR KFIG 230405Z AUTO 05004KT 5SM BR OVC009 M01/M02 A3004 RMK AO2 T10111017

More Conditions Fewer Conditions

Pressure 30.04 in
Visibility 5.0 miles
Clouds Overcast 900 ft
Windchill 25 °F
Dew Point 29 °F
Humidity 96%
Rainfall 0.02 in
Snow Depth Not available.
UV 0 out of 12
Pollen .10 out of 12
Air Quality Not available.
Flu Activity Not available.
METAR KFIG 230405Z AUTO 05004KT 5SM BR OVC009 M01/M02 A3004 RMK AO2 T10111017

More Conditions Fewer Conditions

10-Day Weather Forecast

Almanac

Astronomy

Dec. 22, 2014 Rise Set
Actual Time
Civil Twilight
Nautical Twilight
Astronomical Twilight
Moon
Length of Visible Light
Length of Day
Tomorrow will be .
, % of the Moon is Illuminated

Today's Extremes

State Highs State Lows

Community

WunderPhotos

Upload Photos

1,779,778 photos uploaded!

WunderBlogs® & News

Nearby

Air Quality

  Air Quality AQ Index Pollutant
Not available.

Snow Depth

Station Depth Elevation

Earthquake Activity

City Distance Mag. Time & Date
Minimum magnitude displayed is 2.5.

Coastal Water Temperatures

Place Temperature

Nearby Weather Stations